Terminal Aerodrome Forecast
Issued by NWS

Home | Current Version | Previous Version | Text Only | Print | Product List | Glossary On
Versions: 1 2 3 4 5 6 7 8 9 10 11 12 13 14 15 16
000
FTUS46 KSGX 201700
TAFONT
TAF
KONT 201726Z 2018/2124 VRB06KT P6SM FEW015 SCT070
     FM202100 25012KT P6SM SCT090 SCT120
     FM210400 24006KT P6SM FEW012
     FM210900 VRB05KT P6SM BKN010
     FM211600 VRB04KT P6SM FEW012
     FM212100 25012KT P6SM SCT080=

USA.gov is the U.S. government's official web portal to all federal, state and local government web resources and services.